sensor_id;sensor_type;location;lat;lon;timestamp;P1;durP1;ratioP1;P2;durP2;ratioP2
52620;SDS011;38515;53.160;6.990;2023-10-31T00:01:45;520.50;;;480.63;;
52620;SDS011;38515;53.160;6.990;2023-10-31T00:04:11;598.22;;;552.10;;
52620;SDS011;38515;53.160;6.990;2023-10-31T00:06:37;609.28;;;563.38;;
52620;SDS011;38515;53.160;6.990;2023-10-31T00:09:03;479.08;;;443.33;;
52620;SDS011;38515;53.160;6.990;2023-10-31T00:11:29;603.50;;;557.67;;
52620;SDS011;38515;53.160;6.990;2023-10-31T00:13:54;650.20;;;599.10;;
52620;SDS011;38515;53.160;6.990;2023-10-31T00:16:20;544.42;;;503.42;;
52620;SDS011;38515;53.160;6.990;2023-10-31T00:18:46;531.65;;;490.00;;
52620;SDS011;38515;53.160;6.990;2023-10-31T00:21:12;569.97;;;523.65;;
52620;SDS011;38515;53.160;6.990;2023-10-31T00:23:47;634.35;;;584.08;;
52620;SDS011;38515;53.160;6.990;2023-10-31T00:26:14;605.58;;;559.60;;
52620;SDS011;38515;53.160;6.990;2023-10-31T00:28:40;514.17;;;473.85;;
52620;SDS011;38515;53.160;6.990;2023-10-31T00:31:07;569.65;;;524.58;;
52620;SDS011;38515;53.160;6.990;2023-10-31T00:33:34;554.38;;;510.25;;
52620;SDS011;38515;53.160;6.990;2023-10-31T00:36:00;569.75;;;524.05;;
52620;SDS011;38515;53.160;6.990;2023-10-31T00:38:26;596.45;;;549.33;;
52620;SDS011;38515;53.160;6.990;2023-10-31T00:40:53;505.50;;;464.20;;
52620;SDS011;38515;53.160;6.990;2023-10-31T00:43:18;593.72;;;546.40;;
52620;SDS011;38515;53.160;6.990;2023-10-31T00:45:44;579.50;;;532.72;;
52620;SDS011;38515;53.160;6.990;2023-10-31T00:48:10;571.90;;;526.95;;
52620;SDS011;38515;53.160;6.990;2023-10-31T00:50:36;542.22;;;498.95;;
52620;SDS011;38515;53.160;6.990;2023-10-31T00:53:02;532.47;;;492.65;;
52620;SDS011;38515;53.160;6.990;2023-10-31T00:55:28;550.42;;;507.60;;
52620;SDS011;38515;53.160;6.990;2023-10-31T00:57:53;497.60;;;459.77;;
52620;SDS011;38515;53.160;6.990;2023-10-31T01:00:19;609.22;;;561.67;;
52620;SDS011;38515;53.160;6.990;2023-10-31T01:02:45;577.42;;;530.33;;
52620;SDS011;38515;53.160;6.990;2023-10-31T01:05:11;508.65;;;468.13;;
52620;SDS011;38515;53.160;6.990;2023-10-31T01:07:37;497.80;;;460.08;;
52620;SDS011;38515;53.160;6.990;2023-10-31T01:10:03;495.23;;;457.45;;
52620;SDS011;38515;53.160;6.990;2023-10-31T01:12:30;511.77;;;474.80;;
52620;SDS011;38515;53.160;6.990;2023-10-31T01:14:56;526.60;;;486.63;;
52620;SDS011;38515;53.160;6.990;2023-10-31T01:17:22;536.75;;;498.90;;
52620;SDS011;38515;53.160;6.990;2023-10-31T01:19:48;517.40;;;481.20;;
52620;SDS011;38515;53.160;6.990;2023-10-31T01:22:14;519.28;;;482.30;;
52620;SDS011;38515;53.160;6.990;2023-10-31T01:24:39;548.92;;;511.98;;
52620;SDS011;38515;53.160;6.990;2023-10-31T01:27:06;508.60;;;473.80;;
52620;SDS011;38515;53.160;6.990;2023-10-31T01:29:31;532.30;;;492.13;;
52620;SDS011;38515;53.160;6.990;2023-10-31T01:31:57;503.45;;;470.35;;
52620;SDS011;38515;53.160;6.990;2023-10-31T01:34:23;531.53;;;494.42;;
52620;SDS011;38515;53.160;6.990;2023-10-31T01:36:49;502.08;;;465.15;;
52620;SDS011;38515;53.160;6.990;2023-10-31T01:39:15;514.22;;;475.08;;
52620;SDS011;38515;53.160;6.990;2023-10-31T01:41:41;452.70;;;421.88;;
52620;SDS011;38515;53.160;6.990;2023-10-31T01:44:08;448.23;;;419.75;;
52620;SDS011;38515;53.160;6.990;2023-10-31T01:46:35;424.05;;;396.35;;
52620;SDS011;38515;53.160;6.990;2023-10-31T01:49:00;460.60;;;429.33;;
52620;SDS011;38515;53.160;6.990;2023-10-31T01:51:27;456.40;;;425.77;;
52620;SDS011;38515;53.160;6.990;2023-10-31T01:53:53;407.50;;;379.92;;
52620;SDS011;38515;53.160;6.990;2023-10-31T01:56:20;369.17;;;348.10;;
52620;SDS011;38515;53.160;6.990;2023-10-31T01:58:47;341.48;;;322.52;;
52620;SDS011;38515;53.160;6.990;2023-10-31T02:01:14;305.38;;;287.00;;
52620;SDS011;38515;53.160;6.990;2023-10-31T02:03:41;315.58;;;296.02;;
52620;SDS011;38515;53.160;6.990;2023-10-31T02:06:07;307.85;;;289.30;;
52620;SDS011;38515;53.160;6.990;2023-10-31T02:08:33;311.38;;;292.30;;
52620;SDS011;38515;53.160;6.990;2023-10-31T02:10:59;324.27;;;304.67;;
52620;SDS011;38515;53.160;6.990;2023-10-31T02:13:25;365.27;;;344.83;;
52620;SDS011;38515;53.160;6.990;2023-10-31T02:15:51;376.70;;;355.00;;
52620;SDS011;38515;53.160;6.990;2023-10-31T02:18:17;352.92;;;333.83;;
52620;SDS011;38515;53.160;6.990;2023-10-31T02:20:43;328.33;;;308.70;;
52620;SDS011;38515;53.160;6.990;2023-10-31T02:23:10;312.52;;;292.25;;
52620;SDS011;38515;53.160;6.990;2023-10-31T02:25:36;270.27;;;253.88;;
52620;SDS011;38515;53.160;6.990;2023-10-31T02:28:01;236.85;;;223.70;;
52620;SDS011;38515;53.160;6.990;2023-10-31T02:30:27;261.00;;;246.40;;
52620;SDS011;38515;53.160;6.990;2023-10-31T02:32:53;283.10;;;265.20;;
52620;SDS011;38515;53.160;6.990;2023-10-31T02:35:19;259.35;;;242.90;;
52620;SDS011;38515;53.160;6.990;2023-10-31T02:37:45;254.93;;;240.10;;
52620;SDS011;38515;53.160;6.990;2023-10-31T02:40:12;254.13;;;239.20;;
52620;SDS011;38515;53.160;6.990;2023-10-31T02:42:38;260.10;;;245.82;;
52620;SDS011;38515;53.160;6.990;2023-10-31T02:45:04;282.60;;;268.00;;
52620;SDS011;38515;53.160;6.990;2023-10-31T02:47:30;261.08;;;247.05;;
52620;SDS011;38515;53.160;6.990;2023-10-31T02:49:56;236.63;;;224.18;;
52620;SDS011;38515;53.160;6.990;2023-10-31T02:52:22;267.02;;;252.93;;
52620;SDS011;38515;53.160;6.990;2023-10-31T02:54:48;276.50;;;261.80;;
52620;SDS011;38515;53.160;6.990;2023-10-31T02:57:15;252.52;;;239.25;;
52620;SDS011;38515;53.160;6.990;2023-10-31T02:59:41;253.02;;;239.40;;
52620;SDS011;38515;53.160;6.990;2023-10-31T03:02:07;240.80;;;225.50;;
52620;SDS011;38515;53.160;6.990;2023-10-31T03:04:33;229.90;;;214.40;;
52620;SDS011;38515;53.160;6.990;2023-10-31T03:06:59;260.33;;;242.63;;
52620;SDS011;38515;53.160;6.990;2023-10-31T03:09:25;282.02;;;262.70;;
52620;SDS011;38515;53.160;6.990;2023-10-31T03:11:50;247.55;;;233.35;;
52620;SDS011;38515;53.160;6.990;2023-10-31T03:14:16;228.65;;;214.65;;
52620;SDS011;38515;53.160;6.990;2023-10-31T03:16:42;259.05;;;242.73;;
52620;SDS011;38515;53.160;6.990;2023-10-31T03:19:08;255.18;;;239.35;;
52620;SDS011;38515;53.160;6.990;2023-10-31T03:21:34;295.20;;;273.65;;
52620;SDS011;38515;53.160;6.990;2023-10-31T03:23:59;245.65;;;231.10;;
52620;SDS011;38515;53.160;6.990;2023-10-31T03:26:25;256.63;;;239.50;;
52620;SDS011;38515;53.160;6.990;2023-10-31T03:28:51;262.20;;;246.13;;
52620;SDS011;38515;53.160;6.990;2023-10-31T03:31:22;834.53;;;767.33;;
52620;SDS011;38515;53.160;6.990;2023-10-31T03:33:48;260.33;;;242.65;;
52620;SDS011;38515;53.160;6.990;2023-10-31T03:36:15;199.82;;;188.63;;
52620;SDS011;38515;53.160;6.990;2023-10-31T03:38:41;217.13;;;204.88;;
52620;SDS011;38515;53.160;6.990;2023-10-31T03:41:07;170.38;;;160.73;;
52620;SDS011;38515;53.160;6.990;2023-10-31T03:43:33;234.38;;;219.85;;
52620;SDS011;38515;53.160;6.990;2023-10-31T03:45:59;212.60;;;199.85;;
52620;SDS011;38515;53.160;6.990;2023-10-31T03:48:24;201.30;;;190.20;;
52620;SDS011;38515;53.160;6.990;2023-10-31T03:50:50;233.75;;;220.50;;
52620;SDS011;38515;53.160;6.990;2023-10-31T03:53:16;201.77;;;191.23;;
52620;SDS011;38515;53.160;6.990;2023-10-31T03:55:42;190.05;;;181.43;;
52620;SDS011;38515;53.160;6.990;2023-10-31T03:58:08;213.10;;;203.23;;
52620;SDS011;38515;53.160;6.990;2023-10-31T04:00:34;217.00;;;206.60;;
52620;SDS011;38515;53.160;6.990;2023-10-31T04:02:59;286.05;;;270.08;;
52620;SDS011;38515;53.160;6.990;2023-10-31T04:05:26;226.90;;;215.02;;
52620;SDS011;38515;53.160;6.990;2023-10-31T04:07:51;247.57;;;234.00;;
52620;SDS011;38515;53.160;6.990;2023-10-31T04:10:17;251.82;;;239.05;;
52620;SDS011;38515;53.160;6.990;2023-10-31T04:12:44;204.05;;;194.52;;
52620;SDS011;38515;53.160;6.990;2023-10-31T04:15:10;205.45;;;195.55;;
52620;SDS011;38515;53.160;6.990;2023-10-31T04:17:36;214.00;;;203.15;;
52620;SDS011;38515;53.160;6.990;2023-10-31T04:20:03;195.98;;;185.25;;
52620;SDS011;38515;53.160;6.990;2023-10-31T04:22:29;186.85;;;177.43;;
52620;SDS011;38515;53.160;6.990;2023-10-31T04:24:55;229.57;;;217.55;;
52620;SDS011;38515;53.160;6.990;2023-10-31T04:27:21;218.05;;;205.35;;
52620;SDS011;38515;53.160;6.990;2023-10-31T04:29:47;217.32;;;205.60;;
52620;SDS011;38515;53.160;6.990;2023-10-31T04:32:13;212.55;;;200.45;;
52620;SDS011;38515;53.160;6.990;2023-10-31T04:34:39;239.95;;;225.25;;
52620;SDS011;38515;53.160;6.990;2023-10-31T04:37:05;242.05;;;228.52;;
52620;SDS011;38515;53.160;6.990;2023-10-31T04:39:30;250.98;;;237.00;;
52620;SDS011;38515;53.160;6.990;2023-10-31T04:41:56;204.13;;;192.40;;
52620;SDS011;38515;53.160;6.990;2023-10-31T04:44:22;227.35;;;213.60;;
52620;SDS011;38515;53.160;6.990;2023-10-31T04:46:48;191.63;;;180.95;;
52620;SDS011;38515;53.160;6.990;2023-10-31T04:49:14;190.75;;;179.85;;
52620;SDS011;38515;53.160;6.990;2023-10-31T04:51:43;196.18;;;185.55;;
52620;SDS011;38515;53.160;6.990;2023-10-31T04:54:08;188.43;;;178.20;;
52620;SDS011;38515;53.160;6.990;2023-10-31T04:56:34;169.25;;;160.90;;
52620;SDS011;38515;53.160;6.990;2023-10-31T04:59:01;205.05;;;193.52;;
52620;SDS011;38515;53.160;6.990;2023-10-31T05:01:27;166.32;;;156.95;;
52620;SDS011;38515;53.160;6.990;2023-10-31T05:03:53;156.68;;;148.90;;
52620;SDS011;38515;53.160;6.990;2023-10-31T05:06:19;133.20;;;126.75;;
52620;SDS011;38515;53.160;6.990;2023-10-31T05:08:46;165.35;;;158.07;;
52620;SDS011;38515;53.160;6.990;2023-10-31T05:11:12;171.75;;;163.02;;
52620;SDS011;38515;53.160;6.990;2023-10-31T05:13:38;141.85;;;135.00;;
52620;SDS011;38515;53.160;6.990;2023-10-31T05:16:04;139.43;;;132.40;;
52620;SDS011;38515;53.160;6.990;2023-10-31T05:18:31;227.00;;;215.35;;
52620;SDS011;38515;53.160;6.990;2023-10-31T05:20:56;219.90;;;208.45;;
52620;SDS011;38515;53.160;6.990;2023-10-31T05:23:22;199.35;;;190.02;;
52620;SDS011;38515;53.160;6.990;2023-10-31T05:25:48;218.45;;;208.43;;
52620;SDS011;38515;53.160;6.990;2023-10-31T05:28:14;215.13;;;205.35;;
52620;SDS011;38515;53.160;6.990;2023-10-31T05:30:39;235.75;;;224.63;;
52620;SDS011;38515;53.160;6.990;2023-10-31T05:33:05;192.20;;;183.30;;
52620;SDS011;38515;53.160;6.990;2023-10-31T05:35:32;136.95;;;130.93;;
52620;SDS011;38515;53.160;6.990;2023-10-31T05:37:59;244.00;;;232.90;;
52620;SDS011;38515;53.160;6.990;2023-10-31T05:40:24;215.55;;;205.50;;
52620;SDS011;38515;53.160;6.990;2023-10-31T05:42:52;163.60;;;156.07;;
52620;SDS011;38515;53.160;6.990;2023-10-31T05:45:18;206.18;;;196.65;;
52620;SDS011;38515;53.160;6.990;2023-10-31T05:47:44;148.65;;;142.48;;
52620;SDS011;38515;53.160;6.990;2023-10-31T05:50:09;215.63;;;205.73;;
52620;SDS011;38515;53.160;6.990;2023-10-31T05:52:36;227.95;;;217.20;;
52620;SDS011;38515;53.160;6.990;2023-10-31T05:55:02;182.23;;;172.90;;
52620;SDS011;38515;53.160;6.990;2023-10-31T05:57:28;220.63;;;209.90;;
52620;SDS011;38515;53.160;6.990;2023-10-31T05:59:53;214.15;;;203.95;;
52620;SDS011;38515;53.160;6.990;2023-10-31T06:02:19;196.70;;;187.30;;
52620;SDS011;38515;53.160;6.990;2023-10-31T06:04:45;190.30;;;180.55;;
52620;SDS011;38515;53.160;6.990;2023-10-31T06:07:11;167.95;;;159.95;;
52620;SDS011;38515;53.160;6.990;2023-10-31T06:09:37;244.93;;;232.27;;
52620;SDS011;38515;53.160;6.990;2023-10-31T06:12:03;169.32;;;161.13;;
52620;SDS011;38515;53.160;6.990;2023-10-31T06:14:30;165.65;;;157.52;;
52620;SDS011;38515;53.160;6.990;2023-10-31T06:16:56;150.50;;;142.93;;
52620;SDS011;38515;53.160;6.990;2023-10-31T06:19:24;706.95;;;655.08;;
52620;SDS011;38515;53.160;6.990;2023-10-31T06:21:50;158.68;;;151.68;;
52620;SDS011;38515;53.160;6.990;2023-10-31T06:24:16;172.13;;;164.60;;
52620;SDS011;38515;53.160;6.990;2023-10-31T06:26:41;187.10;;;178.57;;
52620;SDS011;38515;53.160;6.990;2023-10-31T06:29:07;136.00;;;130.27;;
52620;SDS011;38515;53.160;6.990;2023-10-31T06:31:33;251.52;;;240.15;;
52620;SDS011;38515;53.160;6.990;2023-10-31T06:33:59;185.77;;;175.88;;
52620;SDS011;38515;53.160;6.990;2023-10-31T06:36:24;220.35;;;207.75;;
52620;SDS011;38515;53.160;6.990;2023-10-31T06:38:50;174.77;;;164.43;;
52620;SDS011;38515;53.160;6.990;2023-10-31T06:41:16;176.13;;;167.45;;
52620;SDS011;38515;53.160;6.990;2023-10-31T06:43:42;184.90;;;176.18;;
52620;SDS011;38515;53.160;6.990;2023-10-31T06:46:08;153.40;;;146.43;;
52620;SDS011;38515;53.160;6.990;2023-10-31T06:48:34;191.57;;;182.00;;
52620;SDS011;38515;53.160;6.990;2023-10-31T06:51:00;182.73;;;173.68;;
52620;SDS011;38515;53.160;6.990;2023-10-31T06:53:25;195.10;;;185.00;;
52620;SDS011;38515;53.160;6.990;2023-10-31T06:55:51;184.77;;;175.70;;
52620;SDS011;38515;53.160;6.990;2023-10-31T06:58:17;164.00;;;155.90;;
52620;SDS011;38515;53.160;6.990;2023-10-31T07:00:43;184.50;;;175.15;;
52620;SDS011;38515;53.160;6.990;2023-10-31T07:03:09;200.48;;;190.88;;
52620;SDS011;38515;53.160;6.990;2023-10-31T07:05:40;186.48;;;176.70;;
52620;SDS011;38515;53.160;6.990;2023-10-31T07:08:07;230.88;;;219.40;;
52620;SDS011;38515;53.160;6.990;2023-10-31T07:10:32;222.02;;;211.13;;
52620;SDS011;38515;53.160;6.990;2023-10-31T07:12:59;239.40;;;227.40;;
52620;SDS011;38515;53.160;6.990;2023-10-31T07:15:25;239.35;;;227.35;;
52620;SDS011;38515;53.160;6.990;2023-10-31T07:17:51;221.43;;;209.98;;
52620;SDS011;38515;53.160;6.990;2023-10-31T07:20:17;225.93;;;214.38;;
52620;SDS011;38515;53.160;6.990;2023-10-31T07:22:43;231.70;;;219.65;;
52620;SDS011;38515;53.160;6.990;2023-10-31T07:25:09;222.93;;;211.27;;
52620;SDS011;38515;53.160;6.990;2023-10-31T07:27:35;151.75;;;144.55;;
52620;SDS011;38515;53.160;6.990;2023-10-31T07:30:02;150.00;;;142.07;;
52620;SDS011;38515;53.160;6.990;2023-10-31T07:32:31;550.60;;;513.30;;
52620;SDS011;38515;53.160;6.990;2023-10-31T07:34:57;720.80;;;666.53;;
52620;SDS011;38515;53.160;6.990;2023-10-31T07:37:23;838.92;;;778.55;;
52620;SDS011;38515;53.160;6.990;2023-10-31T07:39:49;415.60;;;391.42;;
52620;SDS011;38515;53.160;6.990;2023-10-31T07:42:16;245.77;;;233.20;;
52620;SDS011;38515;53.160;6.990;2023-10-31T07:44:42;317.98;;;301.70;;
52620;SDS011;38515;53.160;6.990;2023-10-31T07:47:10;444.60;;;417.15;;
52620;SDS011;38515;53.160;6.990;2023-10-31T07:49:36;396.30;;;374.75;;
52620;SDS011;38515;53.160;6.990;2023-10-31T07:52:04;190.48;;;181.40;;
52620;SDS011;38515;53.160;6.990;2023-10-31T07:54:31;162.25;;;154.43;;
52620;SDS011;38515;53.160;6.990;2023-10-31T07:56:57;222.80;;;210.63;;
52620;SDS011;38515;53.160;6.990;2023-10-31T07:59:22;111.60;;;106.10;;
52620;SDS011;38515;53.160;6.990;2023-10-31T08:01:48;81.28;;;76.70;;
52620;SDS011;38515;53.160;6.990;2023-10-31T08:04:15;48.70;;;45.95;;
52620;SDS011;38515;53.160;6.990;2023-10-31T08:06:42;69.68;;;66.40;;
52620;SDS011;38515;53.160;6.990;2023-10-31T08:09:08;65.88;;;62.30;;
52620;SDS011;38515;53.160;6.990;2023-10-31T08:11:34;59.67;;;56.70;;
52620;SDS011;38515;53.160;6.990;2023-10-31T08:14:00;233.60;;;220.23;;
52620;SDS011;38515;53.160;6.990;2023-10-31T08:16:27;319.83;;;302.98;;
52620;SDS011;38515;53.160;6.990;2023-10-31T08:18:53;311.27;;;295.48;;
52620;SDS011;38515;53.160;6.990;2023-10-31T08:21:19;332.92;;;316.58;;
52620;SDS011;38515;53.160;6.990;2023-10-31T08:23:45;156.80;;;149.05;;
52620;SDS011;38515;53.160;6.990;2023-10-31T08:26:11;259.08;;;246.85;;
52620;SDS011;38515;53.160;6.990;2023-10-31T08:28:38;180.48;;;170.77;;
52620;SDS011;38515;53.160;6.990;2023-10-31T08:31:03;249.18;;;237.15;;
52620;SDS011;38515;53.160;6.990;2023-10-31T08:33:29;363.63;;;345.83;;
52620;SDS011;38515;53.160;6.990;2023-10-31T08:35:55;381.27;;;361.90;;
52620;SDS011;38515;53.160;6.990;2023-10-31T08:38:21;326.05;;;309.95;;
52620;SDS011;38515;53.160;6.990;2023-10-31T08:40:47;398.23;;;377.52;;
52620;SDS011;38515;53.160;6.990;2023-10-31T08:43:14;327.25;;;310.42;;
52620;SDS011;38515;53.160;6.990;2023-10-31T08:45:39;282.92;;;269.15;;
52620;SDS011;38515;53.160;6.990;2023-10-31T08:48:05;295.27;;;281.15;;
52620;SDS011;38515;53.160;6.990;2023-10-31T08:50:31;302.05;;;287.02;;
52620;SDS011;38515;53.160;6.990;2023-10-31T08:52:57;294.50;;;280.30;;
52620;SDS011;38515;53.160;6.990;2023-10-31T08:55:23;441.80;;;417.67;;
52620;SDS011;38515;53.160;6.990;2023-10-31T08:57:49;271.17;;;258.38;;
52620;SDS011;38515;53.160;6.990;2023-10-31T09:00:18;437.98;;;414.20;;
52620;SDS011;38515;53.160;6.990;2023-10-31T09:02:44;413.23;;;391.58;;
52620;SDS011;38515;53.160;6.990;2023-10-31T09:05:11;294.40;;;280.00;;
52620;SDS011;38515;53.160;6.990;2023-10-31T09:07:37;176.35;;;168.75;;
52620;SDS011;38515;53.160;6.990;2023-10-31T09:10:02;128.88;;;123.47;;
52620;SDS011;38515;53.160;6.990;2023-10-31T09:12:30;136.48;;;131.02;;
52620;SDS011;38515;53.160;6.990;2023-10-31T09:14:56;146.95;;;140.88;;
52620;SDS011;38515;53.160;6.990;2023-10-31T09:17:22;167.68;;;161.00;;
52620;SDS011;38515;53.160;6.990;2023-10-31T09:19:47;166.25;;;159.07;;
52620;SDS011;38515;53.160;6.990;2023-10-31T09:22:13;180.60;;;173.48;;
52620;SDS011;38515;53.160;6.990;2023-10-31T09:24:39;146.75;;;140.57;;
52620;SDS011;38515;53.160;6.990;2023-10-31T09:27:05;153.85;;;147.10;;
52620;SDS011;38515;53.160;6.990;2023-10-31T09:29:31;198.48;;;190.32;;
52620;SDS011;38515;53.160;6.990;2023-10-31T09:31:57;154.70;;;148.65;;
52620;SDS011;38515;53.160;6.990;2023-10-31T09:34:24;130.63;;;125.25;;
52620;SDS011;38515;53.160;6.990;2023-10-31T09:36:50;93.03;;;88.90;;
52620;SDS011;38515;53.160;6.990;2023-10-31T09:39:18;205.00;;;195.88;;
52620;SDS011;38515;53.160;6.990;2023-10-31T09:41:44;180.02;;;171.80;;
52620;SDS011;38515;53.160;6.990;2023-10-31T09:44:10;159.98;;;152.25;;
52620;SDS011;38515;53.160;6.990;2023-10-31T09:46:38;131.68;;;125.45;;
52620;SDS011;38515;53.160;6.990;2023-10-31T09:49:06;297.30;;;282.98;;
52620;SDS011;38515;53.160;6.990;2023-10-31T09:51:33;272.95;;;258.08;;
52620;SDS011;38515;53.160;6.990;2023-10-31T09:53:59;194.63;;;186.00;;
52620;SDS011;38515;53.160;6.990;2023-10-31T09:56:28;202.02;;;192.88;;
52620;SDS011;38515;53.160;6.990;2023-10-31T09:59:04;256.63;;;244.45;;
52620;SDS011;38515;53.160;6.990;2023-10-31T10:01:30;278.23;;;264.58;;
52620;SDS011;38515;53.160;6.990;2023-10-31T10:03:56;281.50;;;268.58;;
52620;SDS011;38515;53.160;6.990;2023-10-31T10:06:22;192.45;;;183.50;;
52620;SDS011;38515;53.160;6.990;2023-10-31T10:08:49;201.43;;;192.98;;
52620;SDS011;38515;53.160;6.990;2023-10-31T10:11:15;156.10;;;148.43;;
52620;SDS011;38515;53.160;6.990;2023-10-31T10:13:41;279.25;;;265.30;;
52620;SDS011;38515;53.160;6.990;2023-10-31T10:16:07;61.25;;;58.70;;
52620;SDS011;38515;53.160;6.990;2023-10-31T10:18:35;285.27;;;271.20;;
52620;SDS011;38515;53.160;6.990;2023-10-31T10:21:05;405.15;;;383.10;;
52620;SDS011;38515;53.160;6.990;2023-10-31T10:23:32;573.95;;;535.47;;
52620;SDS011;38515;53.160;6.990;2023-10-31T10:25:59;531.95;;;497.30;;
52620;SDS011;38515;53.160;6.990;2023-10-31T10:28:26;442.20;;;412.70;;
52620;SDS011;38515;53.160;6.990;2023-10-31T10:30:54;289.92;;;274.58;;
52620;SDS011;38515;53.160;6.990;2023-10-31T10:33:21;303.20;;;288.35;;
52620;SDS011;38515;53.160;6.990;2023-10-31T10:35:48;244.95;;;231.90;;
52620;SDS011;38515;53.160;6.990;2023-10-31T10:38:14;328.65;;;312.30;;
52620;SDS011;38515;53.160;6.990;2023-10-31T10:40:46;303.13;;;288.63;;
52620;SDS011;38515;53.160;6.990;2023-10-31T10:43:13;72.60;;;69.35;;
52620;SDS011;38515;53.160;6.990;2023-10-31T10:45:42;71.03;;;67.78;;
52620;SDS011;38515;53.160;6.990;2023-10-31T10:53:50;95.85;;;92.05;;
52620;SDS011;38515;53.160;6.990;2023-10-31T10:56:25;88.38;;;84.65;;
52620;SDS011;38515;53.160;6.990;2023-10-31T10:58:58;355.60;;;336.50;;
52620;SDS011;38515;53.160;6.990;2023-10-31T11:01:37;486.75;;;456.92;;
52620;SDS011;38515;53.160;6.990;2023-10-31T11:04:05;361.20;;;339.88;;
52620;SDS011;38515;53.160;6.990;2023-10-31T11:06:32;454.13;;;426.73;;
52620;SDS011;38515;53.160;6.990;2023-10-31T11:09:06;461.23;;;434.77;;
52620;SDS011;38515;53.160;6.990;2023-10-31T11:11:36;673.65;;;627.25;;
52620;SDS011;38515;53.160;6.990;2023-10-31T11:25:08;643.80;;;596.97;;
52620;SDS011;38515;53.160;6.990;2023-10-31T11:41:49;690.83;;;631.08;;
52620;SDS011;38515;53.160;6.990;2023-10-31T11:47:56;238.48;;;224.85;;
52620;SDS011;38515;53.160;6.990;2023-10-31T11:50:22;266.98;;;251.40;;
52620;SDS011;38515;53.160;6.990;2023-10-31T11:55:48;710.90;;;667.67;;
52620;SDS011;38515;53.160;6.990;2023-10-31T11:58:14;569.63;;;539.20;;
52620;SDS011;38515;53.160;6.990;2023-10-31T12:00:40;694.90;;;652.25;;
52620;SDS011;38515;53.160;6.990;2023-10-31T12:03:06;638.70;;;600.20;;
52620;SDS011;38515;53.160;6.990;2023-10-31T12:05:32;646.75;;;608.45;;
52620;SDS011;38515;53.160;6.990;2023-10-31T12:07:58;676.60;;;635.55;;
52620;SDS011;38515;53.160;6.990;2023-10-31T12:10:25;733.17;;;687.33;;
52620;SDS011;38515;53.160;6.990;2023-10-31T12:12:55;440.75;;;418.92;;
52620;SDS011;38515;53.160;6.990;2023-10-31T12:15:21;733.25;;;688.13;;
52620;SDS011;38515;53.160;6.990;2023-10-31T12:17:48;450.48;;;427.00;;
52620;SDS011;38515;53.160;6.990;2023-10-31T12:20:14;479.02;;;454.27;;
52620;SDS011;38515;53.160;6.990;2023-10-31T12:22:44;557.90;;;524.70;;
52620;SDS011;38515;53.160;6.990;2023-10-31T12:25:10;443.08;;;419.73;;
52620;SDS011;38515;53.160;6.990;2023-10-31T12:27:46;487.52;;;462.17;;
52620;SDS011;38515;53.160;6.990;2023-10-31T12:30:17;420.67;;;395.70;;
52620;SDS011;38515;53.160;6.990;2023-10-31T12:32:44;462.10;;;431.05;;
52620;SDS011;38515;53.160;6.990;2023-10-31T12:35:14;488.75;;;452.63;;
52620;SDS011;38515;53.160;6.990;2023-10-31T12:37:46;563.33;;;522.63;;
52620;SDS011;38515;53.160;6.990;2023-10-31T12:40:16;518.58;;;484.08;;
52620;SDS011;38515;53.160;6.990;2023-10-31T12:42:44;346.33;;;324.23;;
52620;SDS011;38515;53.160;6.990;2023-10-31T12:45:11;400.60;;;375.52;;
52620;SDS011;38515;53.160;6.990;2023-10-31T12:47:37;376.70;;;352.60;;
52620;SDS011;38515;53.160;6.990;2023-10-31T12:50:13;379.98;;;356.35;;
52620;SDS011;38515;53.160;6.990;2023-10-31T12:55:13;321.73;;;300.83;;
52620;SDS011;38515;53.160;6.990;2023-10-31T12:57:40;583.90;;;542.80;;
52620;SDS011;38515;53.160;6.990;2023-10-31T13:00:07;386.35;;;364.17;;
52620;SDS011;38515;53.160;6.990;2023-10-31T13:02:36;397.33;;;375.30;;
52620;SDS011;38515;53.160;6.990;2023-10-31T13:05:09;480.80;;;447.38;;
52620;SDS011;38515;53.160;6.990;2023-10-31T13:07:35;467.80;;;435.30;;
52620;SDS011;38515;53.160;6.990;2023-10-31T13:10:01;409.55;;;383.95;;
52620;SDS011;38515;53.160;6.990;2023-10-31T13:12:29;267.95;;;252.07;;
52620;SDS011;38515;53.160;6.990;2023-10-31T13:14:55;411.67;;;386.38;;
52620;SDS011;38515;53.160;6.990;2023-10-31T13:17:21;505.55;;;467.15;;
52620;SDS011;38515;53.160;6.990;2023-10-31T13:19:47;389.27;;;364.13;;
52620;SDS011;38515;53.160;6.990;2023-10-31T13:22:13;391.05;;;364.38;;
52620;SDS011;38515;53.160;6.990;2023-10-31T13:24:39;564.70;;;530.00;;
52620;SDS011;38515;53.160;6.990;2023-10-31T13:27:08;429.77;;;404.92;;
52620;SDS011;38515;53.160;6.990;2023-10-31T13:29:39;493.48;;;459.90;;
52620;SDS011;38515;53.160;6.990;2023-10-31T13:32:05;362.17;;;342.08;;
52620;SDS011;38515;53.160;6.990;2023-10-31T13:34:31;356.67;;;335.90;;
52620;SDS011;38515;53.160;6.990;2023-10-31T13:36:58;259.35;;;245.85;;
52620;SDS011;38515;53.160;6.990;2023-10-31T13:39:24;229.23;;;217.48;;
52620;SDS011;38515;53.160;6.990;2023-10-31T13:41:50;257.80;;;244.60;;
52620;SDS011;38515;53.160;6.990;2023-10-31T13:44:15;210.95;;;201.07;;
52620;SDS011;38515;53.160;6.990;2023-10-31T13:46:41;213.02;;;202.68;;
52620;SDS011;38515;53.160;6.990;2023-10-31T13:49:08;301.27;;;285.60;;
52620;SDS011;38515;53.160;6.990;2023-10-31T13:51:34;295.13;;;279.42;;
52620;SDS011;38515;53.160;6.990;2023-10-31T13:54:00;226.75;;;214.95;;
52620;SDS011;38515;53.160;6.990;2023-10-31T13:56:27;215.73;;;202.88;;
52620;SDS011;38515;53.160;6.990;2023-10-31T13:58:53;113.90;;;108.88;;
52620;SDS011;38515;53.160;6.990;2023-10-31T14:01:19;248.68;;;235.10;;
52620;SDS011;38515;53.160;6.990;2023-10-31T14:03:49;125.47;;;119.53;;
52620;SDS011;38515;53.160;6.990;2023-10-31T14:06:16;213.73;;;203.13;;
52620;SDS011;38515;53.160;6.990;2023-10-31T14:08:42;161.15;;;152.90;;
52620;SDS011;38515;53.160;6.990;2023-10-31T14:11:08;140.15;;;133.13;;
52620;SDS011;38515;53.160;6.990;2023-10-31T14:13:37;193.10;;;184.13;;
52620;SDS011;38515;53.160;6.990;2023-10-31T14:16:03;228.40;;;217.18;;
52620;SDS011;38515;53.160;6.990;2023-10-31T14:18:29;252.02;;;237.10;;
52620;SDS011;38515;53.160;6.990;2023-10-31T14:20:56;198.90;;;188.85;;
52620;SDS011;38515;53.160;6.990;2023-10-31T14:23:22;123.20;;;117.30;;
52620;SDS011;38515;53.160;6.990;2023-10-31T14:25:48;179.68;;;170.45;;
52620;SDS011;38515;53.160;6.990;2023-10-31T14:28:34;278.40;;;263.30;;
52620;SDS011;38515;53.160;6.990;2023-10-31T14:31:00;246.65;;;234.38;;
52620;SDS011;38515;53.160;6.990;2023-10-31T14:33:26;326.35;;;309.25;;